Tower, Michigan
Current Conditions -  °F | °C
As of 10:16 AM on Wednesday 22 Oct 2014 (Local Time) from KSLH Reporting Station
Overcast Overcast  
Wind Chill: 36°   Ceiling: 1900
Heat Index: 41°   Visibility: 10mi
Dew Point: 35°   Wind: 8mph
Humidity: 80%   Direction: 60°ENE
Pressure: 30.41"   Gusts: NA
Location:  45.36°N, 84.3°W
Report Text: KSLH 221416Z AUTO 06007KT 10SM OVC019 05/01 A3041 RMK AO2 T00510019
Loading
Personal Weather Stations






























Interactive Weather Map
Tropical Storm Tracking
New forecast layout! Learn more

10-Day Weather Forecast

Advertisements
Track Severe Weather on mobile